Terminal Aerodrome Forecast
Issued by NWS

Home | Current Version | Previous Version | Text Only | Print | Product List | Glossary On
Versions: 1 2 3 4 5 6 7 8 9 10 11 12 13 14 15 16 17 18 19 20 21 22 23 24 25 26 27
890
FTUS43 KDLH 261349 AAA
TAFBRD
TAF AMD
KBRD 261349Z 2614/2712 04005KT 5SM BR VCSH OVC004
     FM261700 04007KT P6SM OVC008
     FM262300 04005KT P6SM BKN025
     FM270200 00000KT P6SM BKN060
     FM271000 00000KT 5SM BR BKN035=

USA.gov is the U.S. government's official web portal to all federal, state and local government web resources and services.